3K3

Syracuse-Hamilton County Municipal Airport

Syracuse, Kansas, USA
METAR K3K3 161955Z AUTO 14008G17KT 10SM CLR 32/18 A3011 RMK AO2
Observed Flight Rules
Jul-16 @ 19:55 UTC (22 minutes ago) Visual Flight Rules
Wind Visibility Clouds
140° at 8 knots
 Gusting to 17 knots
10 miles
  • Clear skies
Temperatures Readings
Current 32°C / 90°F
Dewpoint 18°C / 64°F
Humidity 43%
Altimeter 30.11" Hg
Pressure 1020 hPa
Elevation 1013
METAR K3K3 161955Z AUTO 14008G17KT 10SM CLR 32/18 A3011 RMK AO2
Observed Flight Rules
Jul-16 @ 19:55 UTC
(22 minutes ago)
VFR
Wind Visibility
140° at 8 knots
 Gusting to 17 knots
10 miles
Clouds
  • Clear skies
Temperature Dewpoint
32°C / 90°F 18°C / 64°F
Humidity Altimeter Pressure
43% 30.11" Hg 1020 hPa